Time;durP1;ratioP1;P1;durP2;ratioP2;P2;SDS_P1;SDS_P2;PMS_P1;PMS_P2;Temp;Humidity;BMP_temperature;BMP_pressure;BME280_temperature;BME280_humidity;BME280_pressure;Samples;Min_cycle;Max_cycle;Signal;HPM_P1;HPM_P2
2021/03/11 00:00:32;;;;;;;59.53;11.15;;;;;;;;;;5050257;28;20100;-53
2021/03/11 00:02:59;;;;;;;33.30;8.85;;;;;;;;;;5049302;28;20029;-54
2021/03/11 00:05:27;;;;;;;43.58;8.98;;;;;;;;;;5031585;28;20083;-51
2021/03/11 00:07:54;;;;;;;54.10;11.38;;;;;;;;;;5035577;28;20030;-52
2021/03/11 00:10:21;;;;;;;57.80;11.95;;;;;;;;;;5049012;28;20067;-50
2021/03/11 00:12:48;;;;;;;35.33;10.40;;;;;;;;;;5040489;28;20059;-48
2021/03/11 00:15:17;;;;;;;39.78;8.55;;;;;;;;;;5035470;28;20021;-46
2021/03/11 00:17:44;;;;;;;48.88;9.20;;;;;;;;;;5048900;28;20020;-52
2021/03/11 00:20:12;;;;;;;39.63;6.50;;;;;;;;;;5047725;28;20036;-51
2021/03/11 00:22:39;;;;;;;32.00;6.00;;;;;;;;;;5038963;28;20029;-48
2021/03/11 00:25:07;;;;;;;29.48;5.70;;;;;;;;;;5048919;28;20036;-54
2021/03/11 00:27:34;;;;;;;36.90;5.10;;;;;;;;;;5049278;28;20111;-50
2021/03/11 00:30:02;;;;;;;45.17;6.50;;;;;;;;;;5051728;28;20045;-50
2021/03/11 00:32:29;;;;;;;36.38;5.18;;;;;;;;;;5052911;28;20469;-51
2021/03/11 00:34:56;;;;;;;41.75;5.78;;;;;;;;;;5035752;28;20047;-52
2021/03/11 00:37:22;;;;;;;29.42;4.75;;;;;;;;;;5052571;28;20431;-50
2021/03/11 00:39:49;;;;;;;29.58;5.07;;;;;;;;;;5053286;28;20051;-49
2021/03/11 00:42:16;;;;;;;34.83;5.15;;;;;;;;;;5052174;28;20078;-49
2021/03/11 00:44:43;;;;;;;30.88;4.97;;;;;;;;;;5049522;28;20029;-49
2021/03/11 00:47:11;;;;;;;35.78;5.25;;;;;;;;;;5033091;28;20061;-51
2021/03/11 00:49:38;;;;;;;35.28;5.03;;;;;;;;;;5034668;28;20030;-50
2021/03/11 00:52:05;;;;;;;29.30;4.88;;;;;;;;;;5042910;28;20043;-48
2021/03/11 00:54:32;;;;;;;32.08;4.65;;;;;;;;;;5041551;28;20153;-50
2021/03/11 00:56:59;;;;;;;37.30;4.95;;;;;;;;;;5044109;28;20079;-50
2021/03/11 00:59:26;;;;;;;32.58;4.25;;;;;;;;;;5052384;28;20410;-52
2021/03/11 01:01:53;;;;;;;29.30;4.55;;;;;;;;;;5034411;28;20058;-58
2021/03/11 01:04:20;;;;;;;28.27;4.00;;;;;;;;;;5052958;28;20480;-54
2021/03/11 01:06:47;;;;;;;33.97;5.57;;;;;;;;;;5049682;28;20705;-54
2021/03/11 01:09:14;;;;;;;40.83;4.95;;;;;;;;;;5039365;28;20029;-57
2021/03/11 01:11:41;;;;;;;26.85;4.30;;;;;;;;;;5052030;28;20100;-56
2021/03/11 01:14:08;;;;;;;38.63;5.47;;;;;;;;;;5051743;28;20025;-49
2021/03/11 01:16:35;;;;;;;22.67;4.20;;;;;;;;;;5052070;28;20063;-48
2021/03/11 01:19:02;;;;;;;38.28;4.50;;;;;;;;;;5051388;28;20077;-49
2021/03/11 01:21:29;;;;;;;23.30;4.20;;;;;;;;;;5052262;28;20039;-50
2021/03/11 01:23:57;;;;;;;27.80;4.57;;;;;;;;;;5051620;28;20469;-48
2021/03/11 01:26:24;;;;;;;100.03;8.43;;;;;;;;;;5052426;28;20040;-50
2021/03/11 01:28:51;;;;;;;56.70;5.97;;;;;;;;;;5051880;28;20021;-53
2021/03/11 01:31:19;;;;;;;76.65;7.55;;;;;;;;;;5049843;28;20011;-51
2021/03/11 01:33:45;;;;;;;94.18;7.55;;;;;;;;;;5045583;28;20027;-55
2021/03/11 01:36:12;;;;;;;110.10;8.63;;;;;;;;;;5051427;28;20040;-52
2021/03/11 01:38:39;;;;;;;129.88;10.73;;;;;;;;;;5038063;28;20374;-53
2021/03/11 01:41:06;;;;;;;100.93;8.85;;;;;;;;;;5051755;28;20095;-54
2021/03/11 01:43:33;;;;;;;91.43;8.80;;;;;;;;;;5051038;28;20540;-49
2021/03/11 01:46:00;;;;;;;100.45;8.65;;;;;;;;;;5048097;28;20071;-52
2021/03/11 01:48:27;;;;;;;70.43;7.00;;;;;;;;;;5038068;28;20458;-54
2021/03/11 01:50:54;;;;;;;55.08;6.25;;;;;;;;;;5032366;28;20100;-50
2021/03/11 01:53:21;;;;;;;74.80;7.43;;;;;;;;;;5051773;28;20021;-52
2021/03/11 01:55:48;;;;;;;77.15;7.30;;;;;;;;;;5051348;28;20021;-57
2021/03/11 01:58:15;;;;;;;51.78;6.85;;;;;;;;;;5052749;28;20025;-55
2021/03/11 02:00:42;;;;;;;65.07;6.93;;;;;;;;;;5051544;28;20024;-50
2021/03/11 02:03:09;;;;;;;53.05;6.28;;;;;;;;;;5051843;28;20481;-56
2021/03/11 02:05:36;;;;;;;76.13;6.32;;;;;;;;;;5050008;28;20029;-55
2021/03/11 02:08:04;;;;;;;49.92;5.15;;;;;;;;;;5052514;28;20021;-51
2021/03/11 02:10:31;;;;;;;42.55;5.32;;;;;;;;;;5051392;28;20028;-52
2021/03/11 02:12:58;;;;;;;27.52;4.65;;;;;;;;;;5052049;28;20025;-48
2021/03/11 02:15:28;;;;;;;56.72;5.95;;;;;;;;;;5051784;28;20476;-55
2021/03/11 02:18:18;;;;;;;54.03;5.78;;;;;;;;;;5049304;28;20028;-59
2021/03/11 02:20:52;;;;;;;58.38;6.22;;;;;;;;;;5042943;28;20037;-46
2021/03/11 02:23:38;;;;;;;53.88;5.13;;;;;;;;;;5033293;28;20028;-45
2021/03/11 02:26:11;;;;;;;36.35;4.22;;;;;;;;;;5051528;28;20419;-46
2021/03/11 02:28:38;;;;;;;44.35;4.00;;;;;;;;;;5050688;28;20028;-46
2021/03/11 02:31:05;;;;;;;32.70;3.35;;;;;;;;;;5052996;28;20017;-45
2021/03/11 02:33:35;;;;;;;49.80;4.90;;;;;;;;;;5053105;28;20025;-47
2021/03/11 02:36:03;;;;;;;34.88;4.90;;;;;;;;;;5053168;28;20057;-50
2021/03/11 02:38:30;;;;;;;41.38;4.30;;;;;;;;;;5052965;28;20049;-53
2021/03/11 02:40:59;;;;;;;30.30;4.80;;;;;;;;;;5052844;28;20029;-52
2021/03/11 02:43:27;;;;;;;28.10;4.57;;;;;;;;;;5052562;28;20494;-50
2021/03/11 02:45:54;;;;;;;27.45;4.90;;;;;;;;;;5052919;28;20021;-51
2021/03/11 02:48:21;;;;;;;22.88;4.07;;;;;;;;;;5052808;28;20037;-50
2021/03/11 02:50:49;;;;;;;23.73;3.63;;;;;;;;;;5052767;28;20353;-53
2021/03/11 02:53:16;;;;;;;21.63;4.18;;;;;;;;;;5052344;28;20025;-50
2021/03/11 02:55:44;;;;;;;16.45;3.35;;;;;;;;;;5045574;28;20029;-48
2021/03/11 02:58:14;;;;;;;14.20;3.67;;;;;;;;;;5051633;28;20055;-52
2021/03/11 03:00:42;;;;;;;22.23;3.40;;;;;;;;;;5051691;28;20588;-48
2021/03/11 03:03:10;;;;;;;19.10;3.45;;;;;;;;;;5051860;28;20024;-50
2021/03/11 03:05:37;;;;;;;19.10;2.78;;;;;;;;;;5051035;28;20067;-48
2021/03/11 03:08:05;;;;;;;9.63;2.45;;;;;;;;;;5052090;28;20079;-49
2021/03/11 03:10:34;;;;;;;16.25;2.58;;;;;;;;;;5051420;28;20021;-47
2021/03/11 03:13:15;;;;;;;14.02;2.30;;;;;;;;;;5051624;28;20025;-47
2021/03/11 03:15:42;;;;;;;14.00;2.63;;;;;;;;;;5051328;28;20032;-47
2021/03/11 03:18:10;;;;;;;14.68;2.17;;;;;;;;;;5051834;28;20444;-49
2021/03/11 03:20:37;;;;;;;15.23;2.40;;;;;;;;;;5051164;28;20099;-49
2021/03/11 03:23:06;;;;;;;17.10;2.38;;;;;;;;;;5051579;28;20103;-47
2021/03/11 03:25:33;;;;;;;11.98;2.30;;;;;;;;;;5050967;28;20087;-49
2021/03/11 03:28:00;;;;;;;13.57;2.95;;;;;;;;;;5051554;28;20033;-49
2021/03/11 03:30:28;;;;;;;14.77;2.38;;;;;;;;;;5051231;28;20028;-51
2021/03/11 03:32:55;;;;;;;11.57;2.20;;;;;;;;;;5051775;28;20025;-50
2021/03/11 03:35:22;;;;;;;11.38;2.47;;;;;;;;;;5051057;28;20021;-49
2021/03/11 03:37:50;;;;;;;11.55;2.22;;;;;;;;;;5051505;28;20013;-48
2021/03/11 03:40:18;;;;;;;8.18;2.15;;;;;;;;;;5033697;28;20028;-52
2021/03/11 03:42:55;;;;;;;8.70;1.85;;;;;;;;;;5051672;28;20025;-53
2021/03/11 03:45:27;;;;;;;8.85;2.00;;;;;;;;;;5051115;28;20346;-53
2021/03/11 03:47:56;;;;;;;4.97;1.98;;;;;;;;;;5051075;28;20037;-51
2021/03/11 03:50:24;;;;;;;7.32;2.15;;;;;;;;;;5033505;28;20361;-49
2021/03/11 03:52:52;;;;;;;6.80;2.13;;;;;;;;;;5051177;28;20028;-49
2021/03/11 03:55:20;;;;;;;7.20;1.95;;;;;;;;;;5050452;28;20485;-49
2021/03/11 03:57:49;;;;;;;7.50;2.30;;;;;;;;;;5032065;28;20025;-46
2021/03/11 04:00:17;;;;;;;5.57;1.63;;;;;;;;;;5031548;28;20529;-50
2021/03/11 04:02:44;;;;;;;10.13;2.20;;;;;;;;;;5030837;28;20022;-49
2021/03/11 04:05:11;;;;;;;7.35;2.00;;;;;;;;;;5034046;28;20048;-52
2021/03/11 04:07:39;;;;;;;7.53;1.63;;;;;;;;;;5034925;28;20444;-50
2021/03/11 04:10:08;;;;;;;4.78;1.55;;;;;;;;;;5037583;28;20025;-46
2021/03/11 04:12:36;;;;;;;4.72;1.63;;;;;;;;;;5054924;28;20106;-52
2021/03/11 04:15:04;;;;;;;10.13;2.08;;;;;;;;;;5055286;28;20021;-53
2021/03/11 04:17:32;;;;;;;11.82;1.98;;;;;;;;;;5054584;28;20028;-50
2021/03/11 04:20:01;;;;;;;4.78;1.80;;;;;;;;;;5054936;28;20124;-48
2021/03/11 04:22:28;;;;;;;6.00;1.90;;;;;;;;;;5055074;28;20480;-46
2021/03/11 04:24:56;;;;;;;10.00;1.83;;;;;;;;;;5054857;28;20027;-52
2021/03/11 04:27:23;;;;;;;4.78;1.90;;;;;;;;;;5055017;28;20484;-49
2021/03/11 04:29:51;;;;;;;5.32;1.55;;;;;;;;;;5054572;28;20025;-52
2021/03/11 04:32:18;;;;;;;7.15;1.98;;;;;;;;;;5055503;28;20029;-51
2021/03/11 04:34:45;;;;;;;4.90;1.70;;;;;;;;;;5053986;28;20476;-49
2021/03/11 04:37:13;;;;;;;4.70;1.88;;;;;;;;;;5054894;28;20086;-48
2021/03/11 04:39:40;;;;;;;8.13;2.08;;;;;;;;;;5054453;28;20025;-50
2021/03/11 04:42:07;;;;;;;5.30;1.92;;;;;;;;;;5054950;28;20074;-49
2021/03/11 04:44:34;;;;;;;8.77;2.10;;;;;;;;;;5053940;28;20025;-53
2021/03/11 04:47:02;;;;;;;4.07;1.80;;;;;;;;;;5036906;28;20033;-47
2021/03/11 04:49:31;;;;;;;9.43;1.98;;;;;;;;;;5053956;28;20078;-51
2021/03/11 04:51:59;;;;;;;7.63;1.80;;;;;;;;;;5054602;28;20096;-52
2021/03/11 04:54:26;;;;;;;5.40;1.70;;;;;;;;;;5054053;28;20028;-51
2021/03/11 04:56:53;;;;;;;3.55;1.55;;;;;;;;;;5054591;28;20025;-49
2021/03/11 04:59:20;;;;;;;4.90;1.70;;;;;;;;;;5053949;28;20025;-49
2021/03/11 05:01:50;;;;;;;4.60;1.50;;;;;;;;;;5036929;28;20035;-49
2021/03/11 05:04:18;;;;;;;7.20;1.83;;;;;;;;;;5054015;28;20028;-47
2021/03/11 05:06:45;;;;;;;4.13;1.58;;;;;;;;;;5053942;28;20036;-52
2021/03/11 05:09:17;;;;;;;6.32;1.75;;;;;;;;;;5054356;28;20017;-48
2021/03/11 05:11:44;;;;;;;7.60;1.80;;;;;;;;;;5053986;28;20025;-47
2021/03/11 05:14:11;;;;;;;5.75;2.00;;;;;;;;;;5053915;28;20029;-52
2021/03/11 05:16:38;;;;;;;5.25;2.08;;;;;;;;;;5053205;28;20029;-49
2021/03/11 05:19:05;;;;;;;6.25;1.80;;;;;;;;;;5054028;28;20124;-53
2021/03/11 05:21:33;;;;;;;7.15;1.98;;;;;;;;;;5053561;28;20051;-51
2021/03/11 05:24:01;;;;;;;4.63;1.80;;;;;;;;;;5054126;28;20048;-50
2021/03/11 05:26:28;;;;;;;4.10;1.42;;;;;;;;;;5053521;28;20028;-50
2021/03/11 05:28:56;;;;;;;5.00;1.70;;;;;;;;;;5054066;28;20040;-51
2021/03/11 05:31:23;;;;;;;7.63;1.88;;;;;;;;;;5053254;28;20025;-48
2021/03/11 05:33:50;;;;;;;8.55;1.95;;;;;;;;;;5053899;28;20025;-53
2021/03/11 05:36:17;;;;;;;6.53;1.88;;;;;;;;;;5053165;28;20508;-51
2021/03/11 05:38:45;;;;;;;5.97;1.85;;;;;;;;;;5053812;28;20029;-53
2021/03/11 05:41:13;;;;;;;5.50;2.05;;;;;;;;;;5053408;28;20037;-48
2021/03/11 05:43:42;;;;;;;5.95;2.05;;;;;;;;;;5053695;28;20505;-52
2021/03/11 05:46:11;;;;;;;9.30;2.00;;;;;;;;;;5052645;28;20036;-47
2021/03/11 05:48:39;;;;;;;7.93;2.20;;;;;;;;;;5053634;28;20111;-48
2021/03/11 05:51:08;;;;;;;4.30;1.33;;;;;;;;;;5053200;28;20025;-50
2021/03/11 05:53:35;;;;;;;5.40;1.60;;;;;;;;;;5053275;28;20025;-53
2021/03/11 05:56:02;;;;;;;4.35;1.80;;;;;;;;;;5053283;28;20021;-49
2021/03/11 05:58:29;;;;;;;5.03;1.92;;;;;;;;;;5053098;28;20028;-52
2021/03/11 06:00:56;;;;;;;8.00;1.85;;;;;;;;;;5053251;28;20658;-49
2021/03/11 06:03:25;;;;;;;7.38;1.92;;;;;;;;;;5052822;28;20029;-52
2021/03/11 06:05:53;;;;;;;6.78;1.80;;;;;;;;;;5053121;28;20092;-52
2021/03/11 06:08:23;;;;;;;6.07;1.75;;;;;;;;;;5052898;28;20388;-50
2021/03/11 06:11:00;;;;;;;5.05;1.80;;;;;;;;;;5053274;28;20469;-50
2021/03/11 06:13:27;;;;;;;3.60;1.63;;;;;;;;;;5052467;28;20783;-46
2021/03/11 06:16:13;;;;;;;4.32;1.88;;;;;;;;;;5052830;28;20428;-50
2021/03/11 06:18:41;;;;;;;5.45;1.80;;;;;;;;;;5052702;28;20060;-52
2021/03/11 06:21:08;;;;;;;4.68;1.73;;;;;;;;;;5053035;28;20028;-52
2021/03/11 06:23:35;;;;;;;6.47;1.85;;;;;;;;;;5052432;28;20017;-50
2021/03/11 06:26:03;;;;;;;8.63;2.35;;;;;;;;;;5052098;28;20024;-47
2021/03/11 06:28:45;;;;;;;4.82;1.80;;;;;;;;;;5052138;28;20484;-48
2021/03/11 06:31:26;;;;;;;4.63;1.55;;;;;;;;;;5052908;28;20112;-50
2021/03/11 06:33:54;;;;;;;8.65;1.73;;;;;;;;;;5051933;28;20036;-48
2021/03/11 06:36:22;;;;;;;3.53;1.60;;;;;;;;;;5052520;28;20032;-48
2021/03/11 06:38:50;;;;;;;7.13;1.90;;;;;;;;;;5052261;28;20392;-49
2021/03/11 06:41:17;;;;;;;6.10;1.48;;;;;;;;;;5052573;28;20027;-48
2021/03/11 06:44:10;;;;;;;5.15;1.75;;;;;;;;;;5052031;28;20029;-48
2021/03/11 06:46:37;;;;;;;5.18;1.90;;;;;;;;;;5048814;28;20091;-49
2021/03/11 06:49:07;;;;;;;5.30;1.63;;;;;;;;;;5051942;28;20025;-48
2021/03/11 06:51:34;;;;;;;4.47;1.55;;;;;;;;;;5034351;28;20500;-47
2021/03/11 06:54:02;;;;;;;4.50;1.50;;;;;;;;;;5052053;28;20033;-47
2021/03/11 06:56:30;;;;;;;7.45;1.60;;;;;;;;;;5051835;28;20037;-50
2021/03/11 06:58:58;;;;;;;4.50;1.70;;;;;;;;;;5052483;28;20096;-46
2021/03/11 07:01:27;;;;;;;6.82;1.75;;;;;;;;;;5051624;28;20025;-49
2021/03/11 07:03:54;;;;;;;6.68;1.40;;;;;;;;;;5052051;28;20412;-49
2021/03/11 07:06:28;;;;;;;4.30;1.40;;;;;;;;;;5034017;28;20032;-47
2021/03/11 07:08:56;;;;;;;5.25;1.77;;;;;;;;;;5052175;28;20025;-47
2021/03/11 07:11:23;;;;;;;5.40;1.48;;;;;;;;;;5051476;28;20376;-47
2021/03/11 07:13:50;;;;;;;6.35;1.80;;;;;;;;;;5052086;28;20021;-47
2021/03/11 07:16:18;;;;;;;7.70;1.55;;;;;;;;;;5051240;28;20014;-49
2021/03/11 07:18:46;;;;;;;7.07;1.65;;;;;;;;;;5051541;28;20045;-47
2021/03/11 07:21:13;;;;;;;4.78;1.35;;;;;;;;;;5051477;28;20020;-46
2021/03/11 07:23:46;;;;;;;5.47;1.60;;;;;;;;;;5051902;28;20488;-50
2021/03/11 07:26:13;;;;;;;5.43;1.38;;;;;;;;;;5051270;28;20025;-47
2021/03/11 07:28:40;;;;;;;6.22;1.52;;;;;;;;;;5034019;28;20029;-51
2021/03/11 07:31:07;;;;;;;5.82;1.63;;;;;;;;;;5033572;28;20366;-45
2021/03/11 07:33:36;;;;;;;6.97;1.40;;;;;;;;;;5051461;28;20039;-51
2021/03/11 07:36:07;;;;;;;4.53;1.38;;;;;;;;;;5051496;28;20025;-48
2021/03/11 07:38:36;;;;;;;6.97;1.60;;;;;;;;;;5051303;28;20029;-47
2021/03/11 07:41:06;;;;;;;3.33;1.05;;;;;;;;;;5051525;28;20025;-48
2021/03/11 07:43:34;;;;;;;4.88;1.30;;;;;;;;;;5050868;28;20547;-48
2021/03/11 07:46:02;;;;;;;4.90;1.20;;;;;;;;;;5051631;28;20040;-50
2021/03/11 07:48:29;;;;;;;6.25;1.52;;;;;;;;;;5051124;28;20030;-53
2021/03/11 07:50:56;;;;;;;4.95;1.48;;;;;;;;;;5051559;28;20036;-52
2021/03/11 07:53:25;;;;;;;6.53;1.10;;;;;;;;;;5050859;28;20013;-51
2021/03/11 07:55:52;;;;;;;4.85;1.10;;;;;;;;;;5051239;28;20055;-52
2021/03/11 07:58:24;;;;;;;6.40;1.42;;;;;;;;;;5050755;28;20017;-52
2021/03/11 08:00:52;;;;;;;5.13;1.33;;;;;;;;;;5051407;28;20105;-52
2021/03/11 08:03:27;;;;;;;7.32;1.75;;;;;;;;;;5050928;28;20392;-48
2021/03/11 08:05:54;;;;;;;3.25;1.10;;;;;;;;;;5051560;28;20063;-52
2021/03/11 08:08:22;;;;;;;7.65;1.60;;;;;;;;;;5050641;28;20064;-50
2021/03/11 08:10:58;;;;;;;6.28;1.00;;;;;;;;;;5050964;28;20025;-52
2021/03/11 08:13:32;;;;;;;5.20;1.20;;;;;;;;;;5050880;28;20374;-52
2021/03/11 08:16:00;;;;;;;5.88;1.45;;;;;;;;;;5051451;28;20052;-48
2021/03/11 08:18:36;;;;;;;4.10;1.10;;;;;;;;;;5050512;28;20163;-52
2021/03/11 08:21:04;;;;;;;3.80;1.17;;;;;;;;;;5051397;28;20025;-48
2021/03/11 08:23:31;;;;;;;2.45;1.00;;;;;;;;;;5050742;28;20060;-47
2021/03/11 08:25:59;;;;;;;4.97;1.25;;;;;;;;;;5051290;28;20017;-52
2021/03/11 08:28:32;;;;;;;4.55;1.00;;;;;;;;;;5050881;28;20029;-50
2021/03/11 08:31:04;;;;;;;6.18;0.98;;;;;;;;;;5032855;28;20055;-47
2021/03/11 08:33:31;;;;;;;4.40;1.40;;;;;;;;;;5051074;28;20029;-51
2021/03/11 08:35:58;;;;;;;5.28;1.30;;;;;;;;;;5050700;28;20017;-50
2021/03/11 08:38:27;;;;;;;5.35;1.33;;;;;;;;;;5050857;28;20063;-52
2021/03/11 08:40:55;;;;;;;2.80;0.98;;;;;;;;;;5050816;28;20465;-52
2021/03/11 08:43:37;;;;;;;6.18;0.80;;;;;;;;;;5050897;28;20037;-51
2021/03/11 08:46:03;;;;;;;;;;;;;;;;;;5050881;28;20021;-51
2021/03/11 08:48:42;;;;;;;5.93;1.13;;;;;;;;;;5050849;28;20000;-53
2021/03/11 08:51:11;;;;;;;4.32;1.00;;;;;;;;;;5053305;28;20051;-46
2021/03/11 08:53:45;;;;;;;3.65;0.80;;;;;;;;;;5054715;28;20032;-50
2021/03/11 08:56:18;;;;;;;3.67;0.82;;;;;;;;;;5053904;28;20032;-52
2021/03/11 08:58:52;;;;;;;5.50;0.95;;;;;;;;;;5054500;28;20031;-52
2021/03/11 09:01:34;;;;;;;3.95;0.95;;;;;;;;;;5053793;28;20100;-48
2021/03/11 09:04:02;;;;;;;4.95;0.88;;;;;;;;;;5054497;28;20070;-51
2021/03/11 09:06:58;;;;;;;9.70;1.20;;;;;;;;;;5036099;28;20431;-49
2021/03/11 09:09:34;;;;;;;8.98;1.00;;;;;;;;;;5027424;28;20083;-52
2021/03/11 09:12:02;;;;;;;4.63;0.85;;;;;;;;;;5053935;28;20021;-49
2021/03/11 09:14:29;;;;;;;3.45;0.98;;;;;;;;;;5054322;28;20060;-48
2021/03/11 09:17:22;;;;;;;8.65;1.10;;;;;;;;;;5053675;28;20048;-51
2021/03/11 09:19:50;;;;;;;1.65;0.50;;;;;;;;;;5050397;28;20049;-48
2021/03/11 09:22:21;;;;;;;5.38;0.60;;;;;;;;;;5053707;28;20040;-54
2021/03/11 09:25:03;;;;;;;3.30;0.68;;;;;;;;;;5054255;28;20028;-49
2021/03/11 09:27:31;;;;;;;3.60;0.60;;;;;;;;;;5053753;28;20392;-50
2021/03/11 09:29:58;;;;;;;4.60;0.65;;;;;;;;;;5053888;28;20025;-52
2021/03/11 09:32:29;;;;;;;9.20;0.90;;;;;;;;;;5053503;28;20029;-47
2021/03/11 09:35:00;;;;;;;5.82;0.82;;;;;;;;;;5035843;28;20485;-52
2021/03/11 09:37:45;;;;;;;4.10;0.80;;;;;;;;;;5053263;28;20025;-47
2021/03/11 09:40:14;;;;;;;4.80;0.68;;;;;;;;;;5053672;28;20024;-51
2021/03/11 09:42:59;;;;;;;6.50;0.85;;;;;;;;;;5053296;28;20037;-52
2021/03/11 09:45:43;;;;;;;2.22;0.60;;;;;;;;;;5053498;28;20028;-53
2021/03/11 09:48:12;;;;;;;7.03;0.88;;;;;;;;;;5053131;28;20089;-48
2021/03/11 09:50:41;;;;;;;4.18;0.63;;;;;;;;;;5053542;28;20025;-52
2021/03/11 09:53:08;;;;;;;4.60;1.25;;;;;;;;;;5053101;28;20024;-53
2021/03/11 09:55:35;;;;;;;4.90;0.60;;;;;;;;;;5053415;28;20155;-47
2021/03/11 09:58:03;;;;;;;2.53;0.60;;;;;;;;;;5035397;28;20024;-47
2021/03/11 10:00:30;;;;;;;4.38;0.60;;;;;;;;;;5053028;28;20025;-49
2021/03/11 10:02:57;;;;;;;2.88;0.60;;;;;;;;;;5053494;28;20025;-50
2021/03/11 10:05:24;;;;;;;3.85;0.45;;;;;;;;;;5052924;28;20096;-51
2021/03/11 10:07:54;;;;;;;3.20;0.60;;;;;;;;;;5053275;28;20492;-51
2021/03/11 10:10:22;;;;;;;4.35;0.50;;;;;;;;;;5052649;28;20024;-48
2021/03/11 10:12:49;;;;;;;4.53;0.80;;;;;;;;;;5053198;28;20032;-50
2021/03/11 10:15:17;;;;;;;5.55;0.73;;;;;;;;;;5052666;28;20021;-50
2021/03/11 10:17:45;;;;;;;7.13;0.82;;;;;;;;;;5052962;28;20519;-49
2021/03/11 10:20:22;;;;;;;5.13;0.70;;;;;;;;;;5052475;28;20033;-53
2021/03/11 10:22:49;;;;;;;7.00;0.80;;;;;;;;;;5053223;28;20032;-52
2021/03/11 10:25:17;;;;;;;6.32;0.93;;;;;;;;;;5052253;28;20021;-52
2021/03/11 10:27:45;;;;;;;4.10;0.68;;;;;;;;;;5052821;28;20116;-51
2021/03/11 10:30:20;;;;;;;5.32;0.57;;;;;;;;;;5052140;28;20420;-47
2021/03/11 10:32:54;;;;;;;2.58;0.50;;;;;;;;;;5053055;28;20033;-49
2021/03/11 10:35:27;;;;;;;4.90;0.47;;;;;;;;;;5051935;28;20036;-47
2021/03/11 10:37:54;;;;;;;4.75;0.57;;;;;;;;;;5037328;28;20032;-55
2021/03/11 10:40:23;;;;;;;4.05;0.50;;;;;;;;;;5050622;28;20029;-49
2021/03/11 10:42:53;;;;;;;8.90;0.80;;;;;;;;;;5050532;28;20029;-55
2021/03/11 10:45:21;;;;;;;7.93;0.80;;;;;;;;;;5049129;28;20416;-57
2021/03/11 10:48:01;;;;;;;1.83;0.60;;;;;;;;;;5050310;28;20029;-55
2021/03/11 10:50:31;;;;;;;5.20;0.60;;;;;;;;;;5050893;28;20111;-67
2021/03/11 10:52:58;;;;;;;8.35;0.85;;;;;;;;;;5052347;28;20060;-67
2021/03/11 10:55:30;;;;;;;6.07;0.70;;;;;;;;;;5034050;28;20096;-60
2021/03/11 10:57:57;;;;;;;7.57;0.80;;;;;;;;;;5050987;28;20036;-65
2021/03/11 11:00:26;;;;;;;6.60;1.00;;;;;;;;;;5051724;28;20051;-65
2021/03/11 11:02:54;;;;;;;8.00;0.93;;;;;;;;;;5051531;28;20021;-65
2021/03/11 11:05:21;;;;;;;3.13;0.63;;;;;;;;;;5051521;28;20021;-65
2021/03/11 11:07:48;;;;;;;4.35;0.93;;;;;;;;;;5051553;28;20508;-63
2021/03/11 11:10:19;;;;;;;3.83;0.60;;;;;;;;;;5051255;28;20020;-61
2021/03/11 11:12:48;;;;;;;7.25;0.93;;;;;;;;;;5045129;28;20049;-57
2021/03/11 11:15:16;;;;;;;4.22;0.68;;;;;;;;;;5051694;28;20025;-61
2021/03/11 11:17:43;;;;;;;3.63;0.60;;;;;;;;;;5029645;28;20612;-60
2021/03/11 11:20:12;;;;;;;5.68;0.80;;;;;;;;;;5013683;28;20049;-59
2021/03/11 11:22:39;;;;;;;9.00;1.05;;;;;;;;;;5048305;28;20028;-59
2021/03/11 11:25:07;;;;;;;8.20;0.73;;;;;;;;;;5051532;28;20039;-59
2021/03/11 11:27:34;;;;;;;4.25;0.57;;;;;;;;;;5050724;28;20047;-62
2021/03/11 11:30:02;;;;;;;2.63;1.00;;;;;;;;;;5045098;28;20100;-62
2021/03/11 11:32:29;;;;;;;6.95;1.00;;;;;;;;;;5042026;28;20025;-60
2021/03/11 11:34:56;;;;;;;7.90;0.90;;;;;;;;;;5031397;28;20025;-61
2021/03/11 11:37:23;;;;;;;6.03;0.60;;;;;;;;;;5030905;28;20037;-59
2021/03/11 11:39:50;;;;;;;9.40;0.68;;;;;;;;;;5031749;28;20026;-61
2021/03/11 11:42:17;;;;;;;5.20;0.60;;;;;;;;;;5042428;28;20051;-61
2021/03/11 11:44:45;;;;;;;3.85;0.70;;;;;;;;;;5032783;28;20029;-62
2021/03/11 11:47:12;;;;;;;5.32;0.85;;;;;;;;;;5051313;28;20033;-60
2021/03/11 11:49:40;;;;;;;6.63;1.00;;;;;;;;;;5050860;28;20024;-58
2021/03/11 11:52:07;;;;;;;1.13;0.38;;;;;;;;;;5050625;28;20025;-62
2021/03/11 11:54:35;;;;;;;4.32;0.98;;;;;;;;;;5050091;28;20022;-60
2021/03/11 11:57:03;;;;;;;6.10;0.60;;;;;;;;;;5048105;28;20017;-55
2021/03/11 11:59:30;;;;;;;5.38;0.63;;;;;;;;;;5050436;28;20027;-60
2021/03/11 12:01:57;;;;;;;5.90;0.57;;;;;;;;;;5050396;28;20491;-61
2021/03/11 12:04:24;;;;;;;5.18;0.75;;;;;;;;;;5030222;28;20017;-59
2021/03/11 12:06:51;;;;;;;6.93;0.63;;;;;;;;;;5047621;28;20029;-51
2021/03/11 12:09:18;;;;;;;5.63;0.68;;;;;;;;;;5050333;28;20496;-58
2021/03/11 12:11:45;;;;;;;3.92;0.57;;;;;;;;;;5050482;28;20029;-63
2021/03/11 12:14:12;;;;;;;5.30;0.65;;;;;;;;;;5049668;28;20043;-62
2021/03/11 12:16:39;;;;;;;4.88;0.63;;;;;;;;;;5044454;28;20022;-63
2021/03/11 12:19:06;;;;;;;3.10;0.50;;;;;;;;;;5049753;28;20037;-57
2021/03/11 12:21:34;;;;;;;4.22;0.82;;;;;;;;;;5045722;28;20044;-58
2021/03/11 12:24:02;;;;;;;5.72;0.55;;;;;;;;;;5032830;28;20025;-64
2021/03/11 12:26:29;;;;;;;4.15;0.63;;;;;;;;;;5054112;28;20086;-67
2021/03/11 12:28:57;;;;;;;2.13;0.55;;;;;;;;;;5054125;28;20036;-66
2021/03/11 12:31:25;;;;;;;6.72;0.93;;;;;;;;;;5053678;28;20025;-65
2021/03/11 12:33:52;;;;;;;11.32;0.73;;;;;;;;;;5054802;28;20036;-63
2021/03/11 12:36:19;;;;;;;2.65;0.57;;;;;;;;;;5053939;28;20056;-64
2021/03/11 12:38:46;;;;;;;4.47;0.60;;;;;;;;;;5054832;28;20031;-63
2021/03/11 12:41:14;;;;;;;5.82;0.68;;;;;;;;;;5054350;28;20078;-64
2021/03/11 12:43:41;;;;;;;2.70;0.63;;;;;;;;;;5054193;28;20052;-64
2021/03/11 12:46:08;;;;;;;4.07;0.43;;;;;;;;;;5053141;28;20048;-65
2021/03/11 12:48:35;;;;;;;3.00;0.70;;;;;;;;;;5053845;28;20021;-61
2021/03/11 12:51:02;;;;;;;5.72;0.70;;;;;;;;;;5050257;28;20029;-65
2021/03/11 12:53:29;;;;;;;7.88;0.65;;;;;;;;;;5051046;28;20044;-56
2021/03/11 12:55:56;;;;;;;7.32;0.50;;;;;;;;;;5053839;28;20028;-57
2021/03/11 12:58:23;;;;;;;11.30;0.70;;;;;;;;;;5054337;28;20017;-67
2021/03/11 13:00:51;;;;;;;60.83;4.13;;;;;;;;;;5050797;28;20029;-61
2021/03/11 13:03:19;;;;;;;34.85;1.95;;;;;;;;;;5049920;28;20029;-58
2021/03/11 13:05:46;;;;;;;16.73;1.83;;;;;;;;;;5036168;28;20025;-63
2021/03/11 13:08:13;;;;;;;18.02;1.30;;;;;;;;;;5053436;28;20033;-58
2021/03/11 13:10:40;;;;;;;11.23;1.15;;;;;;;;;;5053066;28;20025;-65
2021/03/11 13:13:08;;;;;;;8.90;1.00;;;;;;;;;;5053182;28;20484;-64
2021/03/11 13:15:36;;;;;;;8.63;1.10;;;;;;;;;;5043140;28;20033;-61
2021/03/11 13:18:03;;;;;;;13.35;0.90;;;;;;;;;;5049403;28;20021;-61
2021/03/11 13:20:30;;;;;;;6.65;0.60;;;;;;;;;;5049773;28;20029;-64
2021/03/11 13:22:57;;;;;;;6.72;0.60;;;;;;;;;;5046483;28;20461;-65
2021/03/11 13:25:24;;;;;;;7.75;0.75;;;;;;;;;;5034149;28;20021;-60
2021/03/11 13:27:51;;;;;;;7.63;0.60;;;;;;;;;;5052720;28;20037;-65
2021/03/11 13:30:18;;;;;;;9.45;2.00;;;;;;;;;;5052613;28;20033;-65
2021/03/11 13:32:50;;;;;;;7.70;1.20;;;;;;;;;;5043715;28;20048;-60
2021/03/11 13:35:18;;;;;;;8.60;1.05;;;;;;;;;;5050409;28;20032;-60
2021/03/11 13:37:46;;;;;;;14.00;1.25;;;;;;;;;;5047397;28;20017;-65
2021/03/11 13:40:14;;;;;;;17.42;1.30;;;;;;;;;;5050463;28;20056;-59
2021/03/11 13:42:41;;;;;;;19.33;1.30;;;;;;;;;;5052820;28;20020;-64
2021/03/11 13:45:08;;;;;;;12.55;0.98;;;;;;;;;;5034236;28;20053;-65
2021/03/11 13:47:36;;;;;;;18.10;1.40;;;;;;;;;;5051913;28;20033;-62
2021/03/11 13:50:04;;;;;;;26.00;1.73;;;;;;;;;;5044209;28;20033;-61
2021/03/11 13:52:31;;;;;;;20.60;1.30;;;;;;;;;;5048840;28;20028;-64
2021/03/11 13:54:58;;;;;;;5.43;1.02;;;;;;;;;;5043427;28;20476;-60
2021/03/11 13:57:25;;;;;;;10.13;1.15;;;;;;;;;;5052376;28;20021;-65
2021/03/11 13:59:52;;;;;;;11.95;1.23;;;;;;;;;;5041310;28;20021;-62
2021/03/11 14:02:19;;;;;;;7.00;1.38;;;;;;;;;;5052740;28;20039;-65
2021/03/11 14:04:47;;;;;;;14.80;1.23;;;;;;;;;;5047135;28;20016;-61
2021/03/11 14:07:14;;;;;;;29.88;1.70;;;;;;;;;;5052679;28;20060;-60
2021/03/11 14:09:41;;;;;;;13.85;1.50;;;;;;;;;;5052116;28;20484;-63
2021/03/11 14:12:08;;;;;;;16.77;1.30;;;;;;;;;;5052299;28;20086;-58
2021/03/11 14:14:35;;;;;;;13.20;1.42;;;;;;;;;;5052396;28;20021;-58
2021/03/11 14:17:03;;;;;;;8.30;0.95;;;;;;;;;;5037921;28;20029;-59
2021/03/11 14:19:30;;;;;;;13.70;1.33;;;;;;;;;;5052036;28;20041;-61
2021/03/11 14:21:57;;;;;;;10.73;1.42;;;;;;;;;;5051702;28;20021;-60
2021/03/11 14:24:24;;;;;;;13.35;1.52;;;;;;;;;;5032924;28;20021;-61
2021/03/11 14:26:51;;;;;;;8.77;1.00;;;;;;;;;;5036171;28;20515;-55
2021/03/11 14:29:18;;;;;;;9.60;1.00;;;;;;;;;;5023131;28;20021;-62
2021/03/11 14:31:45;;;;;;;14.60;1.67;;;;;;;;;;5051894;28;20027;-55
2021/03/11 14:34:12;;;;;;;7.53;1.00;;;;;;;;;;5045157;28;20108;-54
2021/03/11 14:36:39;;;;;;;6.30;0.68;;;;;;;;;;5034156;28;20424;-59
2021/03/11 14:39:06;;;;;;;5.85;1.08;;;;;;;;;;5037899;28;20036;-59
2021/03/11 14:41:35;;;;;;;5.13;0.60;;;;;;;;;;5051632;28;20075;-63
2021/03/11 14:44:02;;;;;;;15.95;1.92;;;;;;;;;;5032934;28;20017;-65
2021/03/11 14:46:29;;;;;;;12.23;1.33;;;;;;;;;;5051699;28;20469;-60